createdAt,value
2019-04-07T00:00:01.935Z,113.73
2019-04-07T00:02:32.435Z,157.90
2019-04-07T00:05:11.123Z,97.47
2019-04-07T00:07:38.016Z,94.93
2019-04-07T00:10:11.176Z,104.17
2019-04-07T00:12:55.748Z,108.27
2019-04-07T00:15:27.766Z,100.90
2019-04-07T00:18:01.372Z,110.03
2019-04-07T00:20:32.119Z,128.93
2019-04-07T00:23:03.332Z,137.07
2019-04-07T00:25:33.707Z,116.60
2019-04-07T00:28:04.095Z,117.07
2019-04-07T00:30:37.495Z,130.50
2019-04-07T00:33:23.107Z,109.90
2019-04-07T00:35:55.915Z,112.73
2019-04-07T00:38:28.356Z,130.07
2019-04-07T00:41:03.095Z,142.53
2019-04-07T00:43:34.367Z,102.50
2019-04-07T00:46:05.643Z,133.53
2019-04-07T00:48:39.869Z,122.73
2019-04-07T00:51:13.060Z,122.97
2019-04-07T00:53:45.707Z,121.73
2019-04-07T00:56:24.702Z,116.20
2019-04-07T00:59:09.976Z,112.77
2019-04-07T01:01:47.229Z,118.83
2019-04-07T01:04:19.887Z,125.70
2019-04-07T01:06:51.731Z,134.13
2019-04-07T01:09:25.307Z,122.80
2019-04-07T01:11:59.539Z,141.67
2019-04-07T01:14:30.558Z,142.77
2019-04-07T01:17:03.682Z,115.10
2019-04-07T01:19:36.564Z,127.23
2019-04-07T01:22:41.060Z,132.53
2019-04-07T01:28:31.685Z,150.30
2019-04-07T01:31:03.454Z,134.80
2019-04-07T01:34:01.198Z,125.17
2019-04-07T01:36:38.234Z,133.07
2019-04-07T01:39:22.996Z,129.13
2019-04-07T01:42:02.619Z,124.57
2019-04-07T01:44:44.644Z,117.53
2019-04-07T01:47:30.524Z,131.00
2019-04-07T01:50:19.841Z,117.30
2019-04-07T01:53:03.496Z,115.70
2019-04-07T01:55:58.927Z,105.53
2019-04-07T01:58:52.430Z,121.27
2019-04-07T02:01:40.085Z,124.10
2019-04-07T02:04:32.468Z,124.83
2019-04-07T02:07:24.614Z,128.03
2019-04-07T02:10:25.268Z,120.70
2019-04-07T02:13:18.768Z,149.03
2019-04-07T02:16:11.444Z,121.30
2019-04-07T02:19:21.896Z,120.00
2019-04-07T02:22:17.366Z,124.23
2019-04-07T02:25:21.971Z,115.07
2019-04-07T02:28:16.480Z,114.30
2019-04-07T02:31:19.696Z,105.97
2019-04-07T02:34:00.126Z,109.70
2019-04-07T02:36:53.932Z,101.37
2019-04-07T02:40:00.247Z,104.87
2019-04-07T02:42:43.748Z,113.73
2019-04-07T02:45:36.811Z,108.87
2019-04-07T02:48:29.336Z,106.87
2019-04-07T02:51:11.241Z,111.93
2019-04-07T02:53:50.963Z,117.57
2019-04-07T02:56:46.193Z,92.97
2019-04-07T02:59:29.341Z,112.70
2019-04-07T03:02:34.679Z,120.70
2019-04-07T03:05:17.252Z,96.73
2019-04-07T03:08:09.155Z,116.50
2019-04-07T03:11:16.054Z,117.33
2019-04-07T03:13:54.955Z,118.03
2019-04-07T03:16:52.815Z,127.23
2019-04-07T03:19:30.576Z,121.67
2019-04-07T03:22:23.733Z,135.37
2019-04-07T03:25:16.184Z,126.93
2019-04-07T03:28:02.183Z,128.30
2019-04-07T03:30:42.362Z,133.00
2019-04-07T03:33:28.393Z,113.93
2019-04-07T03:36:18.593Z,111.13
2019-04-07T03:38:57.895Z,139.73
2019-04-07T03:41:39.985Z,118.00
2019-04-07T03:44:29.144Z,104.13
2019-04-07T03:47:17.116Z,101.70
2019-04-07T03:50:07.188Z,93.10
2019-04-07T03:52:56.579Z,113.53
2019-04-07T03:55:47.239Z,98.70
2019-04-07T03:58:25.812Z,100.10
2019-04-07T04:01:35.389Z,110.57
2019-04-07T04:04:41.429Z,107.57
2019-04-07T04:07:34.927Z,132.73
2019-04-07T04:10:06.974Z,133.00
2019-04-07T04:13:02.992Z,122.93
2019-04-07T04:15:46.907Z,110.97
2019-04-07T04:18:16.780Z,124.50
2019-04-07T04:20:46.557Z,127.67
2019-04-07T04:23:17.821Z,134.93
2019-04-07T04:25:47.628Z,115.53
2019-04-07T04:28:17.084Z,109.43
2019-04-07T04:30:46.650Z,127.37
2019-04-07T04:33:16.126Z,134.93
2019-04-07T04:35:46.644Z,121.53
2019-04-07T04:38:16.581Z,118.43
2019-04-07T04:40:46.009Z,135.37
2019-04-07T04:43:15.696Z,107.87
2019-04-07T04:45:46.044Z,115.47
2019-04-07T04:48:15.643Z,102.57
2019-04-07T04:50:45.787Z,118.80
2019-04-07T04:53:15.361Z,106.57
2019-04-07T04:55:44.696Z,132.27
2019-04-07T04:58:14.060Z,129.57
2019-04-07T05:00:43.458Z,117.03
2019-04-07T05:03:12.852Z,127.37
2019-04-07T05:05:42.299Z,116.97
2019-04-07T05:08:12.770Z,132.23
2019-04-07T05:10:42.741Z,133.43
2019-04-07T05:13:12.145Z,97.83
2019-04-07T05:15:42.100Z,116.10
2019-04-07T05:18:12.032Z,106.50
2019-04-07T05:20:42.045Z,115.03
2019-04-07T05:23:12.157Z,104.77
2019-04-07T05:25:41.592Z,100.70
2019-04-07T05:28:11.315Z,118.10
2019-04-07T05:30:41.452Z,103.00
2019-04-07T05:33:11.102Z,122.03
2019-04-07T05:35:40.623Z,108.87
2019-04-07T05:38:11.312Z,97.37
2019-04-07T05:40:41.011Z,115.20
2019-04-07T05:43:10.715Z,140.43
2019-04-07T05:45:41.056Z,135.47
2019-04-07T05:48:10.755Z,121.63
2019-04-07T05:50:40.709Z,145.43
2019-04-07T05:53:14.600Z,150.73
2019-04-07T05:55:42.617Z,139.03
2019-04-07T05:58:14.807Z,135.57
2019-04-07T06:00:45.732Z,133.73
2019-04-07T06:03:15.389Z,137.40
2019-04-07T06:05:48.295Z,134.47
2019-04-07T06:08:25.731Z,139.60
2019-04-07T06:10:48.811Z,131.27
2019-04-07T06:13:18.953Z,124.50
2019-04-07T06:15:51.377Z,140.80
2019-04-07T06:18:21.220Z,132.93
2019-04-07T06:20:52.011Z,158.80
2019-04-07T06:23:23.313Z,148.83
2019-04-07T06:25:55.586Z,141.47
2019-04-07T06:28:24.952Z,147.97
2019-04-07T06:30:54.381Z,147.93
2019-04-07T06:33:23.900Z,158.27
2019-04-07T06:35:55.089Z,147.50
2019-04-07T06:38:33.120Z,157.80
2019-04-07T06:41:03.103Z,167.73
2019-04-07T06:43:35.145Z,154.27
2019-04-07T06:46:27.676Z,145.30
2019-04-07T06:49:15.998Z,162.47
2019-04-07T06:52:07.361Z,163.17
2019-04-07T06:54:57.609Z,139.70
2019-04-07T06:57:50.696Z,170.00
2019-04-07T07:00:38.888Z,159.37
2019-04-07T07:03:33.523Z,154.93
2019-04-07T07:06:20.552Z,126.97
2019-04-07T07:09:00.857Z,141.87
2019-04-07T07:12:01.639Z,128.80
2019-04-07T07:14:55.102Z,140.50
2019-04-07T07:17:38.516Z,115.03
2019-04-07T07:20:17.674Z,117.97
2019-04-07T07:22:51.171Z,138.40
2019-04-07T07:25:20.701Z,129.33
2019-04-07T07:27:51.152Z,110.37
2019-04-07T07:30:21.374Z,125.40
2019-04-07T07:32:52.918Z,119.13
2019-04-07T07:35:22.412Z,112.57
2019-04-07T07:37:58.130Z,117.30
2019-04-07T07:40:26.481Z,103.93
2019-04-07T07:42:58.102Z,117.87
2019-04-07T07:45:27.420Z,93.17
2019-04-07T07:47:57.852Z,103.70
2019-04-07T07:50:28.350Z,100.57
2019-04-07T07:52:58.291Z,78.47
2019-04-07T07:55:33.726Z,77.67
2019-04-07T07:58:01.039Z,91.30
2019-04-07T08:00:30.968Z,85.20
2019-04-07T08:03:00.575Z,74.63
2019-04-07T08:05:33.385Z,82.17
2019-04-07T08:08:01.748Z,73.73
2019-04-07T08:10:31.288Z,61.53
2019-04-07T08:13:05.084Z,63.80
2019-04-07T08:15:33.381Z,61.40
2019-04-07T08:18:07.180Z,61.60
2019-04-07T08:20:42.933Z,64.40
2019-04-07T08:23:13.339Z,55.40
2019-04-07T08:25:43.740Z,49.50
2019-04-07T08:28:13.574Z,50.37
2019-04-07T08:30:47.200Z,46.83
2019-04-07T08:33:14.723Z,49.17
2019-04-07T08:35:45.909Z,46.87
2019-04-07T08:38:18.637Z,35.40
2019-04-07T08:40:46.917Z,38.40
2019-04-07T08:43:21.423Z,39.83
2019-04-07T08:45:50.325Z,34.37
2019-04-07T08:48:21.529Z,36.87
2019-04-07T08:50:59.835Z,30.47
2019-04-07T08:53:29.503Z,30.27
2019-04-07T08:55:59.947Z,48.70
2019-04-07T08:58:47.819Z,36.90
2019-04-07T09:01:20.314Z,31.20
2019-04-07T09:03:50.750Z,29.30
2019-04-07T09:15:04.007Z,29.00
2019-04-07T10:43:31.907Z,33.00
2019-04-07T10:58:50.281Z,40.43
2019-04-07T11:01:49.127Z,40.17
2019-04-07T11:04:47.369Z,36.20
2019-04-07T11:11:31.462Z,22.73
2019-04-07T11:17:54.468Z,34.07
2019-04-07T11:20:55.772Z,38.67
2019-04-07T11:27:37.642Z,31.73
2019-04-07T11:30:55.452Z,47.53
2019-04-07T11:34:22.681Z,29.60
2019-04-07T11:37:30.880Z,38.63
2019-04-07T11:40:42.046Z,24.07
2019-04-07T11:43:58.643Z,38.50
2019-04-07T11:50:02.400Z,34.10
2019-04-07T12:01:12.811Z,30.80
2019-04-07T12:04:37.939Z,25.43
2019-04-07T12:07:29.173Z,31.20
2019-04-07T12:10:33.208Z,22.90
2019-04-07T12:13:16.534Z,33.40
2019-04-07T12:16:27.723Z,30.37
2019-04-07T12:19:39.749Z,26.20
2019-04-07T12:25:48.583Z,28.63
2019-04-07T12:29:05.896Z,26.13
2019-04-07T12:31:57.758Z,35.97
2019-04-07T12:34:53.539Z,33.60
2019-04-07T12:37:43.742Z,27.20
2019-04-07T12:49:56.282Z,29.00
2019-04-07T12:53:32.133Z,29.63
2019-04-07T12:59:41.156Z,29.10
2019-04-07T13:02:53.236Z,30.27
2019-04-07T13:09:37.998Z,31.63
2019-04-07T13:41:59.042Z,29.30
2019-04-07T13:45:19.212Z,30.10
2019-04-07T13:48:18.392Z,21.80
2019-04-07T14:16:04.033Z,30.40
2019-04-07T16:48:58.467Z,30.07
2019-04-07T16:51:58.363Z,23.80
2019-04-07T16:54:52.731Z,27.00
2019-04-07T16:57:54.842Z,31.37
2019-04-07T17:04:00.864Z,30.13
2019-04-07T17:06:37.738Z,30.00
2019-04-07T17:09:25.038Z,29.23
2019-04-07T17:12:00.370Z,34.23
2019-04-07T17:14:35.980Z,26.23
2019-04-07T17:17:06.734Z,44.63
2019-04-07T17:19:37.288Z,32.57
2019-04-07T17:22:11.875Z,25.97
2019-04-07T17:24:42.693Z,47.33
2019-04-07T17:27:13.093Z,28.27
2019-04-07T17:29:44.448Z,38.70
2019-04-07T17:32:15.143Z,29.83
2019-04-07T17:34:45.352Z,29.90
2019-04-07T17:37:15.163Z,33.57
2019-04-07T17:40:00.221Z,30.70
2019-04-07T17:42:30.333Z,43.47
2019-04-07T17:45:21.308Z,30.73
2019-04-07T17:48:09.836Z,32.30
2019-04-07T17:50:48.710Z,31.57
2019-04-07T17:53:28.516Z,42.30
2019-04-07T17:56:29.705Z,34.40
2019-04-07T17:59:31.073Z,29.03
2019-04-07T18:02:11.911Z,36.70
2019-04-07T18:05:10.618Z,32.53
2019-04-07T18:08:02.941Z,33.13
2019-04-07T18:10:57.985Z,55.93
2019-04-07T18:13:49.957Z,28.03
2019-04-07T18:16:44.747Z,36.93
2019-04-07T18:19:43.126Z,29.27
2019-04-07T18:22:24.830Z,31.93
2019-04-07T18:25:17.320Z,25.53
2019-04-07T18:28:06.843Z,35.27
2019-04-07T18:31:04.394Z,40.10
2019-04-07T18:33:52.602Z,40.27
2019-04-07T18:36:47.118Z,38.73
2019-04-07T18:39:41.914Z,39.80
2019-04-07T18:42:36.642Z,30.50
2019-04-07T18:45:19.353Z,33.30
2019-04-07T18:48:11.342Z,32.37
2019-04-07T18:51:03.116Z,53.53
2019-04-07T18:53:48.912Z,41.37
2019-04-07T18:56:38.615Z,40.20
2019-04-07T18:59:21.531Z,37.40
2019-04-07T19:02:19.486Z,39.20
2019-04-07T19:05:00.806Z,35.47
2019-04-07T19:07:37.945Z,35.73
2019-04-07T19:10:39.062Z,32.70
2019-04-07T19:13:36.932Z,36.27
2019-04-07T19:16:28.478Z,43.40
2019-04-07T19:19:15.222Z,27.73
2019-04-07T19:22:10.948Z,35.23
2019-04-07T19:25:04.223Z,28.17
2019-04-07T19:27:48.339Z,37.20
2019-04-07T19:30:45.353Z,39.90
2019-04-07T19:33:35.619Z,28.73
2019-04-07T19:36:23.999Z,34.33
2019-04-07T19:39:09.050Z,24.83
2019-04-07T19:41:56.380Z,36.90
2019-04-07T19:44:53.083Z,52.90
2019-04-07T19:47:39.756Z,41.47
2019-04-07T19:50:28.570Z,42.63
2019-04-07T19:53:20.400Z,40.47
2019-04-07T19:56:25.256Z,39.30
2019-04-07T19:59:12.851Z,27.53
2019-04-07T20:02:10.464Z,37.03
2019-04-07T20:04:55.078Z,30.23
2019-04-07T20:07:52.739Z,30.83
2019-04-07T20:10:30.460Z,31.53
2019-04-07T20:13:22.063Z,48.70
2019-04-07T20:16:00.476Z,48.50
2019-04-07T20:18:58.591Z,33.43
2019-04-07T20:21:49.379Z,35.33
2019-04-07T20:24:36.689Z,60.40
2019-04-07T20:27:13.640Z,41.70
2019-04-07T20:30:02.976Z,34.80
2019-04-07T20:32:40.167Z,34.70
2019-04-07T20:35:28.587Z,33.60
2019-04-07T20:38:19.213Z,42.20
2019-04-07T20:41:13.613Z,49.47
2019-04-07T20:43:51.287Z,41.17
2019-04-07T20:46:47.444Z,40.47
2019-04-07T20:49:35.718Z,32.30
2019-04-07T20:52:34.222Z,48.47
2019-04-07T20:55:15.592Z,37.20
2019-04-07T20:58:15.198Z,37.77
2019-04-07T21:01:00.701Z,46.73
2019-04-07T21:03:47.652Z,44.73
2019-04-07T21:06:38.058Z,43.03
2019-04-07T21:09:33.345Z,46.10
2019-04-07T21:12:08.157Z,40.73
2019-04-07T21:15:16.919Z,50.27
2019-04-07T21:17:39.654Z,31.53
2019-04-07T21:20:20.084Z,36.33
2019-04-07T21:23:17.136Z,36.53
2019-04-07T21:25:56.024Z,41.27
2019-04-07T21:28:39.026Z,41.90
2019-04-07T21:31:26.154Z,39.53
2019-04-07T21:34:30.787Z,39.30
2019-04-07T21:37:23.039Z,43.93
2019-04-07T21:40:10.346Z,44.73
2019-04-07T21:43:17.953Z,48.60
2019-04-07T21:46:07.945Z,34.47
2019-04-07T21:48:57.975Z,40.57
2019-04-07T21:51:49.842Z,39.63
2019-04-07T21:54:39.119Z,50.70
2019-04-07T21:57:30.201Z,36.30
2019-04-07T22:00:21.574Z,40.90
2019-04-07T22:03:08.788Z,48.37
2019-04-07T22:05:49.016Z,31.33
2019-04-07T22:08:27.091Z,42.83
2019-04-07T22:10:57.364Z,32.93
2019-04-07T22:13:28.527Z,38.07
2019-04-07T22:16:01.690Z,36.60
2019-04-07T22:18:29.651Z,42.93
2019-04-07T22:20:59.243Z,41.00
2019-04-07T22:23:30.703Z,50.87
2019-04-07T22:26:00.058Z,31.80
2019-04-07T22:28:30.312Z,38.43
2019-04-07T22:31:01.501Z,41.57
2019-04-07T22:33:32.537Z,30.10
2019-04-07T22:36:02.343Z,39.70
2019-04-07T22:38:31.798Z,39.40
2019-04-07T22:41:02.703Z,56.60
2019-04-07T22:43:32.382Z,39.27
2019-04-07T22:46:09.349Z,38.67
2019-04-07T22:48:33.089Z,30.73
2019-04-07T22:51:04.256Z,45.67
2019-04-07T22:53:35.002Z,37.50
2019-04-07T22:56:07.811Z,38.43
2019-04-07T22:58:36.175Z,46.03
2019-04-07T23:01:05.698Z,38.40
2019-04-07T23:03:35.299Z,49.87
2019-04-07T23:06:05.192Z,37.87
2019-04-07T23:08:35.079Z,48.60
2019-04-07T23:11:06.431Z,47.43
2019-04-07T23:13:37.480Z,39.00
2019-04-07T23:16:12.819Z,35.57
2019-04-07T23:18:38.553Z,39.17
2019-04-07T23:21:08.100Z,28.73
2019-04-07T23:23:38.252Z,46.17
2019-04-07T23:26:07.959Z,42.67
2019-04-07T23:28:37.328Z,48.23
2019-04-07T23:31:07.517Z,42.50
2019-04-07T23:33:38.259Z,57.63
2019-04-07T23:36:09.450Z,39.47
2019-04-07T23:38:39.125Z,49.03
2019-04-07T23:41:09.555Z,62.57
2019-04-07T23:43:39.883Z,53.97
2019-04-07T23:46:19.827Z,50.17
2019-04-07T23:48:41.008Z,66.13
2019-04-07T23:51:10.528Z,58.87
2019-04-07T23:54:08.858Z,58.07
2019-04-07T23:56:39.517Z,67.97
2019-04-07T23:59:10.220Z,57.83
